Time;durP1;ratioP1;P1;durP2;ratioP2;P2;SDS_P1;SDS_P2;PMS_P1;PMS_P2;Temp;Humidity;BMP_temperature;BMP_pressure;BME280_temperature;BME280_humidity;BME280_pressure;Samples;Min_cycle;Max_cycle;Signal;HPM_P1;HPM_P2
2023/03/08 00:02:06;;;;;;;3.90;2.30;;;1.50;99.90;;;;;;5058397;28;20796;-65
2023/03/08 00:04:34;;;;;;;5.57;2.80;;;1.50;99.90;;;;;;5057992;28;20455;-65
2023/03/08 00:07:02;;;;;;;4.60;2.50;;;1.60;99.90;;;;;;5058275;28;20463;-65
2023/03/08 00:09:29;;;;;;;6.43;2.50;;;1.60;99.90;;;;;;5057672;28;20455;-65
2023/03/08 00:11:56;;;;;;;6.30;2.90;;;1.50;99.90;;;;;;5057437;28;20538;-65
2023/03/08 00:14:22;;;;;;;5.20;3.10;;;1.50;99.90;;;;;;5057324;28;20593;-65
2023/03/08 00:16:49;;;;;;;7.53;3.17;;;1.40;99.90;;;;;;5058170;28;20469;-65
2023/03/08 00:19:16;;;;;;;5.50;3.53;;;1.40;99.90;;;;;;5057030;28;20454;-65
2023/03/08 00:21:43;;;;;;;7.03;3.23;;;1.40;99.90;;;;;;5056978;28;20493;-65
2023/03/08 00:24:15;;;;;;;4.80;2.90;;;1.40;99.90;;;;;;5057700;28;20465;-65
2023/03/08 00:26:42;;;;;;;6.43;2.80;;;1.30;99.90;;;;;;5056986;28;20964;-65
2023/03/08 00:29:09;;;;;;;7.87;3.20;;;1.40;99.90;;;;;;5056896;28;20466;-64
2023/03/08 00:31:36;;;;;;;4.30;3.40;;;1.30;99.90;;;;;;5056970;28;20953;-65
2023/03/08 00:34:03;;;;;;;6.20;3.73;;;1.30;99.90;;;;;;5057699;28;20469;-65
2023/03/08 00:36:30;;;;;;;6.50;3.77;;;1.30;99.90;;;;;;5057651;28;20483;-65
2023/03/08 00:38:57;;;;;;;5.67;3.50;;;1.30;99.90;;;;;;5056693;28;20916;-66
2023/03/08 00:41:25;;;;;;;5.83;3.57;;;1.30;99.90;;;;;;5056971;28;20478;-65
2023/03/08 00:43:52;;;;;;;10.07;3.57;;;1.30;99.90;;;;;;5057166;28;20451;-65
2023/03/08 00:46:19;;;;;;;9.03;3.83;;;1.20;99.90;;;;;;5056027;28;20466;-66
2023/03/08 00:48:46;;;;;;;6.40;3.40;;;1.20;99.90;;;;;;5055950;28;20843;-65
2023/03/08 00:51:15;;;;;;;6.73;3.80;;;1.10;99.90;;;;;;5055751;28;20455;-65
2023/03/08 00:53:42;;;;;;;6.80;4.33;;;1.10;99.90;;;;;;5055797;28;20469;-64
2023/03/08 00:56:09;;;;;;;7.20;3.47;;;1.10;99.90;;;;;;5056105;28;20538;-64
2023/03/08 00:58:38;;;;;;;9.07;4.63;;;1.10;99.90;;;;;;5055680;28;20459;-65
2023/03/08 01:01:06;;;;;;;9.80;4.20;;;1.10;99.90;;;;;;5055842;28;20541;-65
2023/03/08 01:03:34;;;;;;;7.70;4.30;;;1.10;99.90;;;;;;5055658;28;20949;-64
2023/03/08 01:06:06;;;;;;;7.90;4.43;;;1.00;99.90;;;;;;5056041;28;20459;-64
2023/03/08 01:08:33;;;;;;;5.70;3.93;;;1.10;99.90;;;;;;5055783;28;20448;-65
2023/03/08 01:11:00;;;;;;;6.00;3.70;;;1.00;99.90;;;;;;5055682;28;20546;-65
2023/03/08 01:13:30;;;;;;;7.10;3.93;;;0.90;99.90;;;;;;5055660;28;20465;-65
2023/03/08 01:15:59;;;;;;;5.30;3.60;;;1.00;99.90;;;;;;5055764;28;20874;-65
2023/03/08 01:18:26;;;;;;;7.20;3.67;;;0.90;99.90;;;;;;5056299;28;20785;-66
2023/03/08 01:20:58;;;;;;;14.53;4.50;;;0.90;99.90;;;;;;5055815;28;20499;-65
2023/03/08 01:23:25;;;;;;;14.00;3.97;;;0.90;99.90;;;;;;5055635;28;20459;-65
2023/03/08 01:25:59;;;;;;;12.40;4.10;;;1.00;99.90;;;;;;5055913;28;20455;-66
2023/03/08 01:28:26;;;;;;;10.00;5.80;;;1.00;99.90;;;;;;5055489;28;20450;-65
2023/03/08 01:30:53;;;;;;;10.93;4.80;;;0.90;99.90;;;;;;5055396;28;20791;-65
2023/03/08 01:33:21;;;;;;;8.47;5.30;;;1.00;99.90;;;;;;5055149;28;20459;-65
2023/03/08 01:35:48;;;;;;;7.50;5.10;;;1.00;99.90;;;;;;5055333;28;20558;-63
2023/03/08 01:38:15;;;;;;;8.40;5.00;;;1.00;99.90;;;;;;5055932;28;20466;-65
2023/03/08 01:40:42;;;;;;;8.23;5.40;;;1.00;99.90;;;;;;5055101;28;20562;-65
2023/03/08 01:43:22;;;;;;;11.43;6.40;;;0.90;99.90;;;;;;5054786;28;20461;-64
2023/03/08 01:46:15;;;;;;;10.73;6.43;;;0.80;99.90;;;;;;5055386;28;20453;-65
2023/03/08 01:48:48;;;;;;;9.70;6.70;;;0.80;99.90;;;;;;5055163;28;20443;-65
2023/03/08 01:51:20;;;;;;;9.37;5.47;;;0.80;99.90;;;;;;5055159;28;20439;-65
2023/03/08 01:53:47;;;;;;;8.77;6.50;;;0.70;99.90;;;;;;5054895;28;20443;-64
2023/03/08 01:56:17;;;;;;;16.10;7.03;;;0.70;99.90;;;;;;5057375;28;20457;-65
2023/03/08 01:58:45;;;;;;;11.63;5.90;;;0.70;99.90;;;;;;5058692;28;20459;-65
2023/03/08 02:01:12;;;;;;;9.00;6.43;;;0.70;99.90;;;;;;5059017;28;20483;-65
2023/03/08 02:03:39;;;;;;;10.97;6.60;;;0.60;99.90;;;;;;5058576;28;20941;-65
2023/03/08 02:06:08;;;;;;;9.63;5.90;;;0.60;99.90;;;;;;5058896;28;20455;-65
2023/03/08 02:08:36;;;;;;;9.27;6.37;;;0.70;99.90;;;;;;5059065;28;20545;-64
2023/03/08 02:11:03;;;;;;;9.00;6.53;;;0.60;99.90;;;;;;5058811;28;20465;-65
2023/03/08 02:13:30;;;;;;;7.47;6.10;;;0.60;99.90;;;;;;5058870;28;20454;-65
2023/03/08 02:15:59;;;;;;;10.47;7.57;;;0.50;99.90;;;;;;5058811;28;20459;-64
2023/03/08 02:18:26;;;;;;;7.90;6.60;;;0.50;99.90;;;;;;5059136;28;20455;-65
2023/03/08 02:20:53;;;;;;;13.93;7.70;;;0.60;99.90;;;;;;5058670;28;20455;-65
2023/03/08 02:23:23;;;;;;;11.43;7.13;;;0.60;99.90;;;;;;5058679;28;20843;-65
2023/03/08 02:25:52;;;;;;;12.87;7.53;;;0.60;99.90;;;;;;5058042;28;20465;-66
2023/03/08 02:28:20;;;;;;;9.60;6.10;;;0.60;99.90;;;;;;5058623;28;20454;-65
2023/03/08 02:30:48;;;;;;;12.10;6.93;;;0.60;99.90;;;;;;5058781;28;20934;-65
2023/03/08 02:33:15;;;;;;;10.57;7.33;;;0.50;99.90;;;;;;5058630;28;20455;-65
2023/03/08 02:35:43;;;;;;;10.23;7.03;;;0.60;99.90;;;;;;5058302;28;20455;-65
2023/03/08 02:38:10;;;;;;;10.10;7.17;;;0.40;99.90;;;;;;5058210;28;20467;-65
2023/03/08 02:40:39;;;;;;;13.10;8.23;;;0.50;99.90;;;;;;5058030;28;20465;-64
2023/03/08 02:43:06;;;;;;;14.43;8.80;;;0.40;99.90;;;;;;5058218;28;20482;-65
2023/03/08 02:45:33;;;;;;;12.30;9.13;;;0.50;99.90;;;;;;5058242;28;20455;-65
2023/03/08 02:48:00;;;;;;;18.80;9.63;;;0.50;99.90;;;;;;5057734;28;20447;-65
2023/03/08 02:50:28;;;;;;;13.60;9.40;;;0.50;99.90;;;;;;5058127;28;20923;-65
2023/03/08 02:52:55;;;;;;;18.67;11.40;;;0.40;99.90;;;;;;5058143;28;20451;-65
2023/03/08 02:55:21;;;;;;;14.50;11.03;;;0.50;99.90;;;;;;5057763;28;20553;-64
2023/03/08 02:57:50;;;;;;;15.80;10.40;;;0.50;99.90;;;;;;5058167;28;20533;-65
2023/03/08 03:00:17;;;;;;;17.80;11.03;;;0.50;99.90;;;;;;5058058;28;20943;-64
2023/03/08 03:02:44;;;;;;;20.43;12.13;;;0.60;99.90;;;;;;5058639;28;20479;-64
2023/03/08 03:05:11;;;;;;;19.53;11.20;;;0.50;99.90;;;;;;5057694;28;20884;-65
2023/03/08 03:07:38;;;;;;;16.17;11.30;;;0.50;99.90;;;;;;5056394;28;20465;-65
2023/03/08 03:10:07;;;;;;;17.70;11.27;;;0.50;99.90;;;;;;5057840;28;20823;-65
2023/03/08 03:12:34;;;;;;;17.17;11.37;;;0.50;99.90;;;;;;5057623;28;20461;-65
2023/03/08 03:15:03;;;;;;;15.97;10.70;;;0.60;99.90;;;;;;5057488;28;20483;-65
2023/03/08 03:17:30;;;;;;;17.80;11.40;;;0.60;99.90;;;;;;5057559;28;20469;-65
2023/03/08 03:19:57;;;;;;;17.13;11.33;;;0.50;99.90;;;;;;5057481;28;20859;-65
2023/03/08 03:22:24;;;;;;;19.20;11.87;;;0.60;99.90;;;;;;5057067;28;20578;-64
2023/03/08 03:24:51;;;;;;;19.23;12.40;;;0.50;99.90;;;;;;5056776;28;20473;-65
2023/03/08 03:27:18;;;;;;;19.90;13.07;;;0.60;99.90;;;;;;5057964;28;20462;-65
2023/03/08 03:29:45;;;;;;;17.83;12.73;;;0.60;99.90;;;;;;5057434;28;20787;-64
2023/03/08 03:32:13;;;;;;;22.80;13.97;;;0.60;99.90;;;;;;5057084;28;20461;-65
2023/03/08 03:34:40;;;;;;;21.13;13.10;;;0.60;99.90;;;;;;5056876;28;20929;-65
2023/03/08 03:37:07;;;;;;;19.43;13.07;;;0.50;99.90;;;;;;5057093;28;20461;-63
2023/03/08 03:39:37;;;;;;;18.03;12.60;;;0.50;99.90;;;;;;5057091;28;20454;-65
2023/03/08 03:42:05;;;;;;;18.23;11.33;;;0.60;99.90;;;;;;5056981;28;20477;-65
2023/03/08 03:44:32;;;;;;;19.40;11.30;;;0.60;99.90;;;;;;5056949;28;20466;-65
2023/03/08 03:46:58;;;;;;;16.60;11.00;;;0.60;99.90;;;;;;5057152;28;20465;-65
2023/03/08 03:49:27;;;;;;;15.00;10.20;;;0.60;99.90;;;;;;5056975;28;20791;-65
2023/03/08 03:51:54;;;;;;;15.87;9.80;;;0.50;99.90;;;;;;5056967;28;20759;-65
2023/03/08 03:54:20;;;;;;;15.13;10.83;;;0.50;99.90;;;;;;5056482;28;20546;-65
2023/03/08 03:56:47;;;;;;;14.40;10.40;;;0.50;99.90;;;;;;5056463;28;20459;-64
2023/03/08 03:59:14;;;;;;;18.03;9.27;;;0.50;99.90;;;;;;5056657;28;20463;-64
2023/03/08 04:01:41;;;;;;;16.87;10.67;;;0.50;99.90;;;;;;5056770;28;20479;-65
2023/03/08 04:04:10;;;;;;;17.13;10.13;;;0.50;99.90;;;;;;5037162;28;20456;-65
2023/03/08 04:06:39;;;;;;;15.70;11.10;;;0.50;99.90;;;;;;5042877;28;20469;-65
2023/03/08 04:09:08;;;;;;;17.90;10.50;;;0.50;99.90;;;;;;5055964;28;20455;-66
2023/03/08 04:11:37;;;;;;;19.30;12.07;;;0.60;99.90;;;;;;5056329;28;20451;-65
2023/03/08 04:14:04;;;;;;;19.83;10.50;;;0.40;99.90;;;;;;5056053;28;20501;-66
2023/03/08 04:16:32;;;;;;;16.73;11.43;;;0.50;99.90;;;;;;5056237;28;20554;-65
2023/03/08 04:19:01;;;;;;;16.47;11.30;;;0.60;99.90;;;;;;5056067;28;20783;-64
2023/03/08 04:21:28;;;;;;;15.87;10.67;;;0.70;99.90;;;;;;5056748;28;20464;-65
2023/03/08 04:23:57;;;;;;;20.73;12.60;;;0.70;99.90;;;;;;5056844;28;20947;-65
2023/03/08 04:26:24;;;;;;;21.77;12.33;;;0.70;99.90;;;;;;5051828;28;20460;-65
2023/03/08 04:28:51;;;;;;;23.53;12.27;;;0.70;99.90;;;;;;5036216;28;20456;-65
2023/03/08 04:31:20;;;;;;;16.03;11.00;;;0.80;99.90;;;;;;5036738;28;20514;-65
2023/03/08 04:33:48;;;;;;;18.90;11.00;;;0.70;99.90;;;;;;5036742;28;20945;-65
2023/03/08 04:36:15;;;;;;;18.27;11.37;;;0.70;99.90;;;;;;5036361;28;20672;-65
2023/03/08 04:38:42;;;;;;;15.70;11.30;;;0.70;99.90;;;;;;5036522;28;20844;-66
2023/03/08 04:41:11;;;;;;;19.73;10.93;;;0.80;99.90;;;;;;5036029;28;20456;-65
2023/03/08 04:43:38;;;;;;;23.03;12.37;;;0.70;99.90;;;;;;5035971;28;20818;-65
2023/03/08 04:46:06;;;;;;;15.50;11.70;;;0.70;99.90;;;;;;5035468;28;20921;-65
2023/03/08 04:48:33;;;;;;;15.90;10.40;;;0.60;99.90;;;;;;5035553;28;20521;-65
2023/03/08 04:51:02;;;;;;;20.33;12.13;;;0.60;99.90;;;;;;5035691;28;20550;-65
2023/03/08 04:53:30;;;;;;;17.30;10.83;;;0.50;99.90;;;;;;5036148;28;20456;-65
2023/03/08 04:55:59;;;;;;;20.30;11.77;;;0.50;99.90;;;;;;5036329;28;20514;-66
2023/03/08 04:58:28;;;;;;;16.00;11.23;;;0.50;99.90;;;;;;5035921;28;20470;-64
2023/03/08 05:00:56;;;;;;;17.83;9.37;;;0.40;99.90;;;;;;5035664;28;20456;-65
2023/03/08 05:03:23;;;;;;;14.13;10.17;;;0.40;99.90;;;;;;5036277;28;20801;-65
2023/03/08 05:05:51;;;;;;;17.20;10.23;;;0.40;99.90;;;;;;5036196;28;20456;-65
2023/03/08 05:08:19;;;;;;;18.17;10.50;;;0.40;99.90;;;;;;5036608;28;20470;-65
2023/03/08 05:10:49;;;;;;;16.97;10.40;;;0.50;99.90;;;;;;5036502;28;20456;-65
2023/03/08 05:13:16;;;;;;;18.33;11.60;;;0.40;99.90;;;;;;5035719;28;20531;-65
2023/03/08 05:15:45;;;;;;;19.83;11.07;;;0.40;99.90;;;;;;5035422;28;20494;-66
2023/03/08 05:18:12;;;;;;;14.93;11.33;;;0.30;99.90;;;;;;5035890;28;20583;-65
2023/03/08 05:20:38;;;;;;;20.20;10.80;;;0.30;99.90;;;;;;5035993;28;20507;-65
2023/03/08 05:23:05;;;;;;;25.53;12.10;;;0.30;99.90;;;;;;5035767;28;20547;-65
2023/03/08 05:25:32;;;;;;;15.70;11.47;;;0.40;99.90;;;;;;5036710;28;20459;-65
2023/03/08 05:28:00;;;;;;;19.70;11.23;;;0.50;99.90;;;;;;5036792;28;20456;-64
2023/03/08 05:30:27;;;;;;;19.50;12.07;;;0.50;99.90;;;;;;5036319;28;20552;-64
2023/03/08 05:32:55;;;;;;;21.83;12.00;;;0.60;99.90;;;;;;5037491;28;20539;-65
2023/03/08 05:35:22;;;;;;;21.00;10.73;;;0.60;99.90;;;;;;5037089;28;20463;-64
2023/03/08 05:37:49;;;;;;;19.70;12.03;;;0.60;99.90;;;;;;5037297;28;20466;-63
2023/03/08 05:40:16;;;;;;;16.07;10.03;;;0.70;99.90;;;;;;5037250;28;20456;-65
2023/03/08 05:42:43;;;;;;;15.50;10.13;;;0.80;99.90;;;;;;5036820;28;20490;-64
2023/03/08 05:45:11;;;;;;;13.90;10.30;;;0.90;99.90;;;;;;5037043;28;20549;-64
2023/03/08 05:47:38;;;;;;;19.57;9.93;;;0.90;99.90;;;;;;5036535;28;20474;-65
2023/03/08 05:50:07;;;;;;;15.97;11.07;;;0.80;99.90;;;;;;5036494;28;20821;-65
2023/03/08 05:52:33;;;;;;;13.47;8.87;;;0.80;99.90;;;;;;5035979;28;20474;-65
2023/03/08 05:55:00;;;;;;;13.30;9.50;;;0.70;99.90;;;;;;5035474;28;20456;-65
2023/03/08 05:57:28;;;;;;;12.00;9.43;;;0.80;99.90;;;;;;5035165;28;20462;-65
2023/03/08 05:59:55;;;;;;;11.87;7.80;;;0.80;99.90;;;;;;5034931;28;20456;-64
2023/03/08 06:02:22;;;;;;;16.70;9.40;;;0.70;99.90;;;;;;5035403;28;20490;-65
2023/03/08 06:04:49;;;;;;;15.03;8.63;;;0.80;99.90;;;;;;5035642;28;20466;-65
2023/03/08 06:07:17;;;;;;;11.23;8.13;;;0.90;99.90;;;;;;5035206;28;20462;-65
2023/03/08 06:09:44;;;;;;;11.40;7.30;;;0.90;99.90;;;;;;5036915;28;20531;-65
2023/03/08 06:12:10;;;;;;;12.70;9.17;;;1.00;99.90;;;;;;5036398;28;20465;-65
2023/03/08 06:14:37;;;;;;;12.73;9.07;;;0.90;99.90;;;;;;5035369;28;20483;-65
2023/03/08 06:17:04;;;;;;;11.37;8.57;;;0.90;99.90;;;;;;5035573;28;20464;-65
2023/03/08 06:19:31;;;;;;;13.50;8.10;;;0.80;99.90;;;;;;5035011;28;20971;-66
2023/03/08 06:21:58;;;;;;;11.90;8.17;;;0.90;99.90;;;;;;5034914;28;20516;-65
2023/03/08 06:24:26;;;;;;;15.67;9.70;;;0.90;99.90;;;;;;5035444;28;20466;-65
2023/03/08 06:26:54;;;;;;;13.90;10.40;;;0.90;99.90;;;;;;5035212;28;20455;-65
2023/03/08 06:29:21;;;;;;;16.33;8.40;;;0.80;99.90;;;;;;5034676;28;20956;-65
2023/03/08 06:31:48;;;;;;;12.67;9.47;;;0.80;99.90;;;;;;5034500;28;20460;-64
2023/03/08 06:34:15;;;;;;;13.63;8.60;;;0.80;99.90;;;;;;5034773;28;20452;-65
2023/03/08 06:36:41;;;;;;;11.60;7.77;;;0.70;99.90;;;;;;5035443;28;20863;-65
2023/03/08 06:39:09;;;;;;;15.77;9.10;;;0.80;99.90;;;;;;5035419;28;20472;-64
2023/03/08 06:41:37;;;;;;;12.43;8.50;;;0.70;99.90;;;;;;5036471;28;20452;-64
2023/03/08 06:44:04;;;;;;;11.30;9.70;;;0.90;99.90;;;;;;5039238;28;20487;-64
2023/03/08 06:46:31;;;;;;;13.40;8.73;;;0.90;99.90;;;;;;5038883;28;20466;-65
2023/03/08 06:48:59;;;;;;;15.00;8.87;;;1.00;99.90;;;;;;5038691;28;20467;-64
2023/03/08 06:51:26;;;;;;;11.50;9.97;;;0.90;99.90;;;;;;5039165;28;20768;-65
2023/03/08 06:53:53;;;;;;;14.80;9.37;;;1.10;99.90;;;;;;5038988;28;20518;-65
2023/03/08 06:56:20;;;;;;;12.90;9.00;;;1.10;99.90;;;;;;5038595;28;20459;-65
2023/03/08 06:58:48;;;;;;;11.73;8.90;;;1.00;99.90;;;;;;5038375;28;20466;-65
2023/03/08 07:01:15;;;;;;;12.47;8.20;;;1.10;99.90;;;;;;5038596;28;20554;-65
2023/03/08 07:03:44;;;;;;;13.77;9.27;;;1.10;99.90;;;;;;5038161;28;20567;-65
2023/03/08 07:06:11;;;;;;;11.90;8.10;;;1.10;99.90;;;;;;5038203;28;20518;-66
2023/03/08 07:08:39;;;;;;;12.47;7.57;;;1.10;99.90;;;;;;5039126;28;20547;-66
2023/03/08 07:11:07;;;;;;;10.53;8.27;;;1.20;99.90;;;;;;5038596;28;20456;-65
2023/03/08 07:13:34;;;;;;;12.10;8.87;;;1.30;99.90;;;;;;5038544;28;20456;-65
2023/03/08 07:16:08;;;;;;;12.30;9.83;;;1.30;99.90;;;;;;5038995;28;20444;-65
2023/03/08 07:18:34;;;;;;;12.07;9.00;;;1.40;99.90;;;;;;5038813;28;20440;-65
2023/03/08 07:21:02;;;;;;;12.30;8.53;;;1.40;99.90;;;;;;5038614;28;20557;-65
2023/03/08 07:23:29;;;;;;;12.33;8.47;;;1.30;99.90;;;;;;5038727;28;20839;-65
2023/03/08 07:25:56;;;;;;;13.70;9.37;;;1.30;99.90;;;;;;5038101;28;20456;-65
2023/03/08 07:28:23;;;;;;;14.23;9.77;;;1.20;99.90;;;;;;5038513;28;20458;-65
2023/03/08 07:30:52;;;;;;;11.97;8.73;;;1.20;99.90;;;;;;5038202;28;20460;-66
2023/03/08 07:33:21;;;;;;;11.93;8.90;;;1.30;99.90;;;;;;5038387;28;20456;-65
2023/03/08 07:35:48;;;;;;;12.30;8.07;;;1.40;99.90;;;;;;5038245;28;20459;-66
2023/03/08 07:38:16;;;;;;;12.13;8.67;;;1.40;99.90;;;;;;5038124;28;20547;-65
2023/03/08 07:40:43;;;;;;;11.70;8.57;;;1.30;99.90;;;;;;5038225;28;20539;-64
2023/03/08 07:43:10;;;;;;;11.60;8.43;;;1.40;99.90;;;;;;5045378;28;20506;-65
2023/03/08 07:45:38;;;;;;;13.67;8.67;;;1.40;99.90;;;;;;5057987;28;20538;-65
2023/03/08 07:48:05;;;;;;;11.00;8.90;;;1.50;99.90;;;;;;5057522;28;20459;-64
2023/03/08 07:50:34;;;;;;;13.63;9.63;;;1.50;99.90;;;;;;5058034;28;20451;-65
2023/03/08 07:53:03;;;;;;;11.90;8.43;;;1.60;99.90;;;;;;5057167;28;20455;-65
2023/03/08 07:55:30;;;;;;;13.60;8.40;;;1.60;99.90;;;;;;5056456;28;20463;-65
2023/03/08 07:57:57;;;;;;;10.87;8.57;;;1.70;99.90;;;;;;5057699;28;21007;-66
2023/03/08 08:00:24;;;;;;;11.10;8.87;;;1.70;99.90;;;;;;5057679;28;20456;-65
2023/03/08 08:02:52;;;;;;;11.47;7.83;;;1.70;99.90;;;;;;5057276;28;20981;-65
2023/03/08 08:05:20;;;;;;;13.47;8.23;;;1.80;99.90;;;;;;5040714;28;21011;-65
2023/03/08 08:07:49;;;;;;;12.90;8.43;;;1.80;99.90;;;;;;5037287;28;20460;-64
2023/03/08 08:10:16;;;;;;;10.00;7.53;;;1.70;99.90;;;;;;5036744;28;20456;-65
2023/03/08 08:12:43;;;;;;;13.00;9.43;;;1.70;99.90;;;;;;5037222;28;20980;-65
2023/03/08 08:15:11;;;;;;;13.50;8.83;;;1.80;99.90;;;;;;5036993;28;20575;-65
2023/03/08 08:17:38;;;;;;;10.53;7.97;;;1.90;99.90;;;;;;5038416;28;20460;-65
2023/03/08 08:20:06;;;;;;;9.53;7.73;;;1.90;99.90;;;;;;5037304;28;20850;-65
2023/03/08 08:22:35;;;;;;;10.50;7.40;;;1.90;99.90;;;;;;5036918;28;20803;-65
2023/03/08 08:25:04;;;;;;;11.53;7.53;;;2.00;99.90;;;;;;5036868;28;20761;-65
2023/03/08 08:27:31;;;;;;;11.50;8.10;;;2.00;99.90;;;;;;5036420;28;20881;-65
2023/03/08 08:29:58;;;;;;;12.20;7.63;;;2.00;99.90;;;;;;5036855;28;20460;-65
2023/03/08 08:32:25;;;;;;;9.90;7.70;;;2.10;99.90;;;;;;5037563;28;20763;-64
2023/03/08 08:34:52;;;;;;;11.30;8.27;;;2.20;99.90;;;;;;5036440;28;20456;-65
2023/03/08 08:37:18;;;;;;;10.03;7.93;;;2.20;99.90;;;;;;5036656;28;20946;-65
2023/03/08 08:39:45;;;;;;;13.73;8.67;;;2.10;99.90;;;;;;5036675;28;20554;-65
2023/03/08 08:42:13;;;;;;;10.00;6.80;;;2.20;99.90;;;;;;5036119;28;20498;-65
2023/03/08 08:44:40;;;;;;;9.73;6.90;;;2.20;99.90;;;;;;5036289;28;20511;-65
2023/03/08 08:47:07;;;;;;;10.90;7.57;;;2.30;99.90;;;;;;5036565;28;20542;-65
2023/03/08 08:49:34;;;;;;;10.40;7.60;;;2.40;99.90;;;;;;5035927;28;20464;-65
2023/03/08 08:52:01;;;;;;;11.10;7.90;;;2.40;99.90;;;;;;5035993;28;20506;-64
2023/03/08 08:54:28;;;;;;;9.47;7.53;;;2.50;99.90;;;;;;5036496;28;20466;-65
2023/03/08 08:56:54;;;;;;;9.10;7.10;;;2.50;99.90;;;;;;5036154;28;20466;-65
2023/03/08 08:59:23;;;;;;;7.87;6.50;;;2.60;99.90;;;;;;5035753;28;21000;-65
2023/03/08 09:01:50;;;;;;;9.23;6.97;;;2.60;99.90;;;;;;5035953;28;20456;-65
2023/03/08 09:04:19;;;;;;;9.57;6.37;;;2.60;99.90;;;;;;5035325;28;20480;-66
2023/03/08 09:06:46;;;;;;;9.23;5.90;;;2.50;99.90;;;;;;5035801;28;20464;-65
2023/03/08 09:09:13;;;;;;;8.90;6.17;;;2.60;99.90;;;;;;5034805;28;20456;-66
2023/03/08 09:11:39;;;;;;;9.13;5.90;;;2.70;99.90;;;;;;5035211;28;20456;-65
2023/03/08 09:14:06;;;;;;;8.40;6.40;;;2.80;99.90;;;;;;5035099;28;20479;-66
2023/03/08 09:16:35;;;;;;;7.97;6.10;;;2.90;99.90;;;;;;5035289;28;20454;-65
2023/03/08 09:19:04;;;;;;;7.03;5.77;;;3.00;99.90;;;;;;5035430;28;20487;-66
2023/03/08 09:21:31;;;;;;;7.27;4.80;;;3.10;99.90;;;;;;5054312;28;20538;-66
2023/03/08 09:24:01;;;;;;;5.50;4.60;;;3.10;99.90;;;;;;5042412;28;20490;-66
2023/03/08 09:26:29;;;;;;;7.00;5.13;;;3.10;99.90;;;;;;5035933;28;20460;-65
2023/03/08 09:28:57;;;;;;;7.40;5.67;;;3.10;99.90;;;;;;5035144;28;20452;-66
2023/03/08 09:31:24;;;;;;;6.90;4.37;;;3.10;99.90;;;;;;5035178;28;20551;-65
2023/03/08 09:33:53;;;;;;;8.50;5.33;;;3.10;99.90;;;;;;5035118;28;20456;-65
2023/03/08 09:36:20;;;;;;;7.83;4.67;;;3.10;99.90;;;;;;5035128;28;20550;-66
2023/03/08 09:38:48;;;;;;;6.20;4.30;;;3.20;99.90;;;;;;5034511;28;20916;-65
2023/03/08 09:41:45;;;;;;;7.10;4.40;;;3.20;99.90;;;;;;5034790;28;20459;-65
2023/03/08 09:44:47;;;;;;;7.27;4.27;;;3.10;99.90;;;;;;5034820;28;20560;-65
2023/03/08 09:47:25;;;;;;;5.90;4.43;;;3.00;99.90;;;;;;5005170;28;20459;-66
2023/03/08 09:49:58;;;;;;;5.10;4.47;;;3.10;99.90;;;;;;5034538;28;20535;-65
2023/03/08 09:52:32;;;;;;;7.33;4.83;;;3.30;99.90;;;;;;5034588;28;20508;-65
2023/03/08 09:55:00;;;;;;;6.70;4.30;;;3.40;99.90;;;;;;5034762;28;20815;-67
2023/03/08 09:57:34;;;;;;;6.27;3.83;;;3.30;99.90;;;;;;5034804;28;20455;-66
2023/03/08 10:00:09;;;;;;;7.17;3.90;;;3.20;99.90;;;;;;5034900;28;20479;-66
2023/03/08 10:02:46;;;;;;;4.90;3.60;;;3.10;99.90;;;;;;5034649;28;20517;-67
2023/03/08 10:05:22;;;;;;;9.80;4.80;;;3.30;99.90;;;;;;5034313;28;20548;-66
2023/03/08 10:07:56;;;;;;;5.20;3.67;;;3.30;99.90;;;;;;5034765;28;20444;-65
2023/03/08 10:10:32;;;;;;;5.60;3.67;;;3.30;99.90;;;;;;5034708;28;20479;-65
2023/03/08 10:13:23;;;;;;;7.33;3.30;;;3.40;99.90;;;;;;5034306;28;20479;-65
2023/03/08 10:15:52;;;;;;;8.30;3.70;;;3.50;99.90;;;;;;5034196;28;20498;-65
2023/03/08 10:18:28;;;;;;;7.90;3.87;;;3.50;99.90;;;;;;5038674;28;20465;-66
2023/03/08 10:20:57;;;;;;;5.23;3.77;;;3.60;99.90;;;;;;5038434;28;20787;-66
2023/03/08 10:23:27;;;;;;;4.50;3.43;;;3.80;99.90;;;;;;5038295;28;20456;-66
2023/03/08 10:25:54;;;;;;;4.87;3.37;;;3.80;99.90;;;;;;5038332;28;20466;-65
2023/03/08 10:28:25;;;;;;;6.30;4.30;;;3.80;99.90;;;;;;5038289;28;20456;-65
2023/03/08 10:30:55;;;;;;;4.47;3.63;;;3.90;99.90;;;;;;5039156;28;20444;-66
2023/03/08 10:33:25;;;;;;;4.87;3.30;;;4.10;99.90;;;;;;5038237;28;20460;-66
2023/03/08 10:35:58;;;;;;;5.70;3.73;;;4.20;99.90;;;;;;5038193;28;20527;-66
2023/03/08 10:38:27;;;;;;;5.90;3.90;;;4.10;99.90;;;;;;5038509;28;20448;-66
2023/03/08 10:41:03;;;;;;;4.03;3.60;;;4.10;99.90;;;;;;5038002;28;20876;-66
2023/03/08 10:43:32;;;;;;;5.07;3.73;;;4.20;99.90;;;;;;5038285;28;20459;-65
2023/03/08 10:46:01;;;;;;;5.47;3.77;;;4.20;99.90;;;;;;5037901;28;20474;-66
2023/03/08 10:48:27;;;;;;;8.27;4.00;;;4.30;99.90;;;;;;5038298;28;20550;-65
2023/03/08 10:51:05;;;;;;;4.33;3.53;;;4.40;99.90;;;;;;5038028;28;20554;-65
2023/03/08 10:53:32;;;;;;;4.17;3.13;;;4.60;99.90;;;;;;5037565;28;20440;-65
2023/03/08 10:56:01;;;;;;;5.70;3.60;;;4.70;99.90;;;;;;5037729;28;20455;-66
2023/03/08 10:58:34;;;;;;;4.00;3.47;;;4.50;99.90;;;;;;5037641;28;20498;-66
2023/03/08 11:01:03;;;;;;;4.27;2.90;;;4.50;99.90;;;;;;5037460;28;20500;-66
2023/03/08 11:03:31;;;;;;;4.87;3.80;;;4.60;99.90;;;;;;5037497;28;20456;-66
2023/03/08 11:06:00;;;;;;;3.90;3.03;;;4.70;99.90;;;;;;5037599;28;20452;-66
2023/03/08 11:08:30;;;;;;;4.73;3.70;;;4.70;99.90;;;;;;5037659;28;20462;-65
2023/03/08 11:11:07;;;;;;;5.23;3.57;;;4.80;99.90;;;;;;5038497;28;20445;-65
2023/03/08 11:13:36;;;;;;;5.37;4.50;;;5.00;99.90;;;;;;5036700;28;20452;-65
2023/03/08 11:16:23;;;;;;;5.27;3.97;;;5.00;99.90;;;;;;5037023;28;20536;-66
2023/03/08 11:19:01;;;;;;;5.27;4.53;;;5.20;99.90;;;;;;5037611;28;20852;-66
2023/03/08 11:21:40;;;;;;;7.23;5.47;;;5.30;99.90;;;;;;5037664;28;20923;-65
2023/03/08 11:24:24;;;;;;;6.03;5.00;;;5.40;99.90;;;;;;5037298;28;20517;-66
2023/03/08 11:27:02;;;;;;;5.30;4.80;;;5.50;99.90;;;;;;5036941;28;20969;-66
2023/03/08 11:29:41;;;;;;;5.97;4.47;;;5.40;99.90;;;;;;5036084;28;20444;-65
2023/03/08 11:32:20;;;;;;;5.43;4.63;;;5.10;99.90;;;;;;5037170;28;20743;-66
2023/03/08 11:35:03;;;;;;;6.50;4.20;;;5.20;99.90;;;;;;5037013;28;20791;-66
2023/03/08 11:37:38;;;;;;;4.40;4.00;;;5.20;99.90;;;;;;5036836;28;20444;-66
2023/03/08 11:40:19;;;;;;;4.90;4.10;;;5.20;99.90;;;;;;5036719;28;20550;-66
2023/03/08 11:42:59;;;;;;;5.97;4.70;;;5.20;99.90;;;;;;5037019;28;20729;-66
2023/03/08 11:45:29;;;;;;;5.13;4.63;;;5.20;99.90;;;;;;5036782;28;20567;-65
2023/03/08 11:48:20;;;;;;;5.97;4.73;;;5.30;99.90;;;;;;5036961;28;20535;-67
2023/03/08 11:50:52;;;;;;;4.90;4.00;;;5.30;99.90;;;;;;5037105;28;20487;-65
2023/03/08 11:53:28;;;;;;;4.93;4.53;;;4.90;99.90;;;;;;5037121;28;20478;-66
2023/03/08 11:56:10;;;;;;;7.03;4.40;;;4.80;99.90;;;;;;5036776;28;20440;-65
2023/03/08 11:58:42;;;;;;;7.23;4.50;;;4.80;99.90;;;;;;5037244;28;20443;-65
2023/03/08 12:01:15;;;;;;;4.93;4.20;;;4.70;99.90;;;;;;5036768;28;20452;-66
2023/03/08 12:03:46;;;;;;;7.73;4.00;;;4.70;99.90;;;;;;5036593;28;20774;-65
2023/03/08 12:06:17;;;;;;;6.40;3.50;;;4.90;99.90;;;;;;5036293;28;20444;-66
2023/03/08 12:08:48;;;;;;;6.20;4.17;;;5.00;99.90;;;;;;5041523;28;20839;-65
2023/03/08 12:11:22;;;;;;;6.03;3.20;;;5.00;99.90;;;;;;5037544;28;20830;-65
2023/03/08 12:13:53;;;;;;;5.03;4.10;;;5.00;99.90;;;;;;5036148;28;20979;-66
2023/03/08 12:16:25;;;;;;;6.10;3.40;;;5.00;99.90;;;;;;5036527;28;20455;-65
2023/03/08 12:18:56;;;;;;;4.40;3.53;;;5.00;99.90;;;;;;5036257;28;20510;-65
2023/03/08 12:21:37;;;;;;;5.13;3.77;;;4.90;99.90;;;;;;5036425;28;20444;-66
2023/03/08 12:24:26;;;;;;;4.50;4.10;;;5.00;99.90;;;;;;5036272;28;20454;-65
2023/03/08 12:27:01;;;;;;;5.47;4.30;;;5.00;99.90;;;;;;5035885;28;20893;-65
2023/03/08 12:29:33;;;;;;;4.30;3.80;;;5.00;99.90;;;;;;5036504;28;20447;-65
2023/03/08 12:32:01;;;;;;;4.43;3.90;;;4.90;99.90;;;;;;5036527;28;20444;-65
2023/03/08 12:34:35;;;;;;;5.80;3.90;;;5.00;99.90;;;;;;5035779;28;20945;-66
2023/03/08 12:37:03;;;;;;;4.50;3.50;;;5.00;99.90;;;;;;5035911;28;20498;-66
2023/03/08 12:39:32;;;;;;;5.97;4.40;;;4.90;99.90;;;;;;5035656;28;20460;-66
2023/03/08 12:42:13;;;;;;;4.43;4.00;;;5.00;99.90;;;;;;5035619;28;20535;-65
2023/03/08 12:44:41;;;;;;;6.73;4.00;;;5.20;99.90;;;;;;5035590;28;20467;-66
2023/03/08 12:47:20;;;;;;;6.43;4.07;;;5.20;99.90;;;;;;5035872;28;20739;-65
2023/03/08 12:49:51;;;;;;;5.33;3.70;;;5.30;99.90;;;;;;5035862;28;20452;-65
2023/03/08 12:52:30;;;;;;;5.73;4.20;;;5.30;99.90;;;;;;5036816;28;20469;-65
2023/03/08 12:54:59;;;;;;;4.40;3.80;;;5.20;99.90;;;;;;5036920;28;20815;-64
2023/03/08 12:57:30;;;;;;;5.30;4.13;;;5.20;99.90;;;;;;5036818;28;20464;-64
2023/03/08 12:59:59;;;;;;;4.10;3.70;;;5.10;99.90;;;;;;5036620;28;20531;-65
2023/03/08 13:02:29;;;;;;;6.40;5.20;;;5.10;99.90;;;;;;5035681;28;20559;-65